sensor_id;sensor_type;location;lat;lon;timestamp;P1;durP1;ratioP1;P2;durP2;ratioP2
63953;SDS011;50128;52.094;5.232;2022-12-16T00:00:00;64.41;;;55.5;;
63953;SDS011;50128;52.094;5.232;2022-12-16T00:03:12;65.5;;;56.3;;
63953;SDS011;50128;52.094;5.232;2022-12-16T00:04:48;65.5;;;56.1;;
63953;SDS011;50128;52.094;5.232;2022-12-16T00:06:26;61.5;;;54.8;;
63953;SDS011;50128;52.094;5.232;2022-12-16T00:09:42;66.8;;;56.6;;
63953;SDS011;50128;52.094;5.232;2022-12-16T00:11:18;62.7;;;55.6;;
63953;SDS011;50128;52.094;5.232;2022-12-16T00:12:55;62.6;;;54.4;;
63953;SDS011;50128;52.094;5.232;2022-12-16T00:14:31;63.4;;;54.3;;
63953;SDS011;50128;52.094;5.232;2022-12-16T00:17:47;63.5;;;53.9;;
63953;SDS011;50128;52.094;5.232;2022-12-16T00:19:23;58.5;;;51.0;;
63953;SDS011;50128;52.094;5.232;2022-12-16T00:20:59;66.5;;;55.4;;
63953;SDS011;50128;52.094;5.232;2022-12-16T00:24:12;63.6;;;53.6;;
63953;SDS011;50128;52.094;5.232;2022-12-16T00:25:49;59.0;;;50.9;;
63953;SDS011;50128;52.094;5.232;2022-12-16T00:27:26;58.3;;;49.2;;
63953;SDS011;50128;52.094;5.232;2022-12-16T00:30:41;61.5;;;53.0;;
63953;SDS011;50128;52.094;5.232;2022-12-16T00:32:18;61.0;;;51.2;;
63953;SDS011;50128;52.094;5.232;2022-12-16T00:35:31;56.7;;;49.7;;
63953;SDS011;50128;52.094;5.232;2022-12-16T00:38:46;55.7;;;48.5;;
63953;SDS011;50128;52.094;5.232;2022-12-16T00:40:23;55.9;;;48.8;;
63953;SDS011;50128;52.094;5.232;2022-12-16T00:42:00;60.2;;;51.9;;
63953;SDS011;50128;52.094;5.232;2022-12-16T00:45:12;60.2;;;51.9;;
63953;SDS011;50128;52.094;5.232;2022-12-16T00:46:48;54.1;;;47.0;;
63953;SDS011;50128;52.094;5.232;2022-12-16T00:48:25;58.1;;;50.1;;
63953;SDS011;50128;52.094;5.232;2022-12-16T00:51:39;49.2;;;43.8;;
63953;SDS011;50128;52.094;5.232;2022-12-16T00:53:16;52.4;;;46.3;;
63953;SDS011;50128;52.094;5.232;2022-12-16T00:54:52;52.5;;;45.4;;
63953;SDS011;50128;52.094;5.232;2022-12-16T00:56:29;53.0;;;45.5;;
63953;SDS011;50128;52.094;5.232;2022-12-16T00:59:41;54.3;;;46.0;;
63953;SDS011;50128;52.094;5.232;2022-12-16T01:01:17;53.0;;;45.7;;
63953;SDS011;50128;52.094;5.232;2022-12-16T01:02:54;50.1;;;43.7;;
63953;SDS011;50128;52.094;5.232;2022-12-16T01:06:06;47.1;;;40.81;;
63953;SDS011;50128;52.094;5.232;2022-12-16T01:07:44;47.8;;;41.3;;
63953;SDS011;50128;52.094;5.232;2022-12-16T01:09:21;48.0;;;40.6;;
63953;SDS011;50128;52.094;5.232;2022-12-16T01:12:34;52.4;;;45.0;;
63953;SDS011;50128;52.094;5.232;2022-12-16T01:14:11;47.9;;;41.7;;
63953;SDS011;50128;52.094;5.232;2022-12-16T01:15:47;52.7;;;44.7;;
63953;SDS011;50128;52.094;5.232;2022-12-16T01:17:25;48.3;;;42.8;;
63953;SDS011;50128;52.094;5.232;2022-12-16T01:20:38;48.8;;;41.5;;
63953;SDS011;50128;52.094;5.232;2022-12-16T01:22:14;48.6;;;42.4;;
63953;SDS011;50128;52.094;5.232;2022-12-16T01:23:50;50.6;;;44.7;;
63953;SDS011;50128;52.094;5.232;2022-12-16T01:27:03;47.7;;;40.71;;
63953;SDS011;50128;52.094;5.232;2022-12-16T01:28:40;48.6;;;41.5;;
63953;SDS011;50128;52.094;5.232;2022-12-16T01:30:16;44.6;;;39.71;;
63953;SDS011;50128;52.094;5.232;2022-12-16T01:33:29;43.4;;;38.4;;
63953;SDS011;50128;52.094;5.232;2022-12-16T01:35:07;48.6;;;40.4;;
63953;SDS011;50128;52.094;5.232;2022-12-16T01:36:44;46.7;;;38.9;;
63953;SDS011;50128;52.094;5.232;2022-12-16T01:38:20;42.0;;;36.4;;
63953;SDS011;50128;52.094;5.232;2022-12-16T01:41:32;44.3;;;39.4;;
63953;SDS011;50128;52.094;5.232;2022-12-16T01:43:09;41.6;;;36.21;;
63953;SDS011;50128;52.094;5.232;2022-12-16T01:44:48;46.4;;;38.5;;
63953;SDS011;50128;52.094;5.232;2022-12-16T01:48:04;42.7;;;37.4;;
63953;SDS011;50128;52.094;5.232;2022-12-16T01:49:57;45.0;;;39.6;;
63953;SDS011;50128;52.094;5.232;2022-12-16T01:51:37;47.5;;;40.4;;
63953;SDS011;50128;52.094;5.232;2022-12-16T01:53:17;42.3;;;37.21;;
63953;SDS011;50128;52.094;5.232;2022-12-16T01:56:35;41.9;;;36.6;;
63953;SDS011;50128;52.094;5.232;2022-12-16T01:58:17;38.5;;;34.31;;
63953;SDS011;50128;52.094;5.232;2022-12-16T01:59:57;37.1;;;32.5;;
63953;SDS011;50128;52.094;5.232;2022-12-16T02:01:36;33.0;;;29.1;;
63953;SDS011;50128;52.094;5.232;2022-12-16T02:05:21;33.0;;;29.5;;
63953;SDS011;50128;52.094;5.232;2022-12-16T02:06:58;32.8;;;28.7;;
63953;SDS011;50128;52.094;5.232;2022-12-16T02:08:35;34.0;;;27.7;;
63953;SDS011;50128;52.094;5.232;2022-12-16T02:10:12;34.0;;;27.7;;
63953;SDS011;50128;52.094;5.232;2022-12-16T02:11:56;33.5;;;29.8;;
63953;SDS011;50128;52.094;5.232;2022-12-16T02:14:11;38.5;;;31.9;;
63953;SDS011;50128;52.094;5.232;2022-12-16T02:16:04;33.21;;;28.3;;
63953;SDS011;50128;52.094;5.232;2022-12-16T02:19:46;35.21;;;29.9;;
63953;SDS011;50128;52.094;5.232;2022-12-16T02:22:39;35.4;;;29.9;;
63953;SDS011;50128;52.094;5.232;2022-12-16T02:28:41;36.0;;;30.1;;
63953;SDS011;50128;52.094;5.232;2022-12-16T02:30:42;30.6;;;26.4;;
63953;SDS011;50128;52.094;5.232;2022-12-16T02:32:38;30.1;;;25.7;;
63953;SDS011;50128;52.094;5.232;2022-12-16T02:36:16;30.9;;;25.2;;
63953;SDS011;50128;52.094;5.232;2022-12-16T02:38:06;25.3;;;22.2;;
63953;SDS011;50128;52.094;5.232;2022-12-16T02:39:51;24.1;;;20.7;;
63953;SDS011;50128;52.094;5.232;2022-12-16T02:41:36;23.5;;;20.2;;
63953;SDS011;50128;52.094;5.232;2022-12-16T02:43:21;22.5;;;19.0;;
63953;SDS011;50128;52.094;5.232;2022-12-16T02:45:18;15.3;;;13.6;;
63953;SDS011;50128;52.094;5.232;2022-12-16T02:48:35;19.61;;;14.9;;
63953;SDS011;50128;52.094;5.232;2022-12-16T02:50:14;18.5;;;14.5;;
63953;SDS011;50128;52.094;5.232;2022-12-16T02:51:55;14.9;;;12.8;;
63953;SDS011;50128;52.094;5.232;2022-12-16T02:53:35;15.5;;;12.8;;
63953;SDS011;50128;52.094;5.232;2022-12-16T02:56:53;17.2;;;13.8;;
63953;SDS011;50128;52.094;5.232;2022-12-16T02:58:44;17.3;;;13.9;;
63953;SDS011;50128;52.094;5.232;2022-12-16T03:00:29;17.5;;;14.3;;
63953;SDS011;50128;52.094;5.232;2022-12-16T03:02:18;16.4;;;13.4;;
63953;SDS011;50128;52.094;5.232;2022-12-16T03:04:01;18.0;;;14.3;;
63953;SDS011;50128;52.094;5.232;2022-12-16T03:07:26;20.7;;;16.9;;
63953;SDS011;50128;52.094;5.232;2022-12-16T03:09:09;20.41;;;16.3;;
63953;SDS011;50128;52.094;5.232;2022-12-16T03:10:51;19.11;;;15.4;;
63953;SDS011;50128;52.094;5.232;2022-12-16T03:15:52;22.8;;;18.0;;
63953;SDS011;50128;52.094;5.232;2022-12-16T03:17:33;23.1;;;18.11;;
63953;SDS011;50128;52.094;5.232;2022-12-16T03:19:12;18.3;;;16.0;;
63953;SDS011;50128;52.094;5.232;2022-12-16T03:20:51;20.7;;;16.7;;
63953;SDS011;50128;52.094;5.232;2022-12-16T03:24:12;22.0;;;17.7;;
63953;SDS011;50128;52.094;5.232;2022-12-16T03:25:51;23.0;;;18.2;;
63953;SDS011;50128;52.094;5.232;2022-12-16T03:27:34;22.8;;;18.0;;
63953;SDS011;50128;52.094;5.232;2022-12-16T03:29:21;22.3;;;17.41;;
63953;SDS011;50128;52.094;5.232;2022-12-16T03:32:55;20.3;;;17.5;;
63953;SDS011;50128;52.094;5.232;2022-12-16T03:34:37;22.4;;;17.61;;
63953;SDS011;50128;52.094;5.232;2022-12-16T03:36:20;22.8;;;18.91;;
63953;SDS011;50128;52.094;5.232;2022-12-16T03:37:59;21.1;;;17.61;;
63953;SDS011;50128;52.094;5.232;2022-12-16T03:39:40;21.3;;;17.91;;
63953;SDS011;50128;52.094;5.232;2022-12-16T03:43:00;20.5;;;17.91;;
63953;SDS011;50128;52.094;5.232;2022-12-16T03:44:38;22.6;;;18.7;;
63953;SDS011;50128;52.094;5.232;2022-12-16T03:46:14;24.4;;;20.5;;
63953;SDS011;50128;52.094;5.232;2022-12-16T03:49:31;23.0;;;19.7;;
63953;SDS011;50128;52.094;5.232;2022-12-16T03:51:07;22.8;;;19.7;;
63953;SDS011;50128;52.094;5.232;2022-12-16T03:52:43;22.4;;;19.91;;
63953;SDS011;50128;52.094;5.232;2022-12-16T03:54:19;23.3;;;19.7;;
63953;SDS011;50128;52.094;5.232;2022-12-16T03:57:33;21.3;;;18.5;;
63953;SDS011;50128;52.094;5.232;2022-12-16T03:59:10;21.6;;;19.0;;
63953;SDS011;50128;52.094;5.232;2022-12-16T04:00:46;20.7;;;18.2;;
63953;SDS011;50128;52.094;5.232;2022-12-16T04:03:58;22.6;;;19.3;;
63953;SDS011;50128;52.094;5.232;2022-12-16T04:05:35;21.8;;;18.91;;
63953;SDS011;50128;52.094;5.232;2022-12-16T04:07:26;21.1;;;18.8;;
63953;SDS011;50128;52.094;5.232;2022-12-16T04:09:02;21.5;;;19.2;;
63953;SDS011;50128;52.094;5.232;2022-12-16T04:24:26;24.7;;;21.4;;
63953;SDS011;50128;52.094;5.232;2022-12-16T04:26:05;24.4;;;19.61;;
63953;SDS011;50128;52.094;5.232;2022-12-16T04:27:45;26.4;;;21.0;;
63953;SDS011;50128;52.094;5.232;2022-12-16T04:30:59;25.1;;;21.2;;
63953;SDS011;50128;52.094;5.232;2022-12-16T04:34:24;24.9;;;20.6;;
63953;SDS011;50128;52.094;5.232;2022-12-16T22:12:42;83.5;;;55.2;;
63953;SDS011;50128;52.094;5.232;2022-12-16T22:16:07;81.41;;;54.4;;
63953;SDS011;50128;52.094;5.232;2022-12-16T22:17:43;82.1;;;55.1;;
63953;SDS011;50128;52.094;5.232;2022-12-16T22:19:19;95.3;;;60.4;;
63953;SDS011;50128;52.094;5.232;2022-12-16T22:20:56;91.0;;;57.4;;
63953;SDS011;50128;52.094;5.232;2022-12-16T22:24:10;91.6;;;58.5;;
63953;SDS011;50128;52.094;5.232;2022-12-16T22:25:53;95.6;;;60.6;;
63953;SDS011;50128;52.094;5.232;2022-12-16T22:29:06;88.5;;;58.4;;
63953;SDS011;50128;52.094;5.232;2022-12-16T22:30:43;97.4;;;61.6;;
63953;SDS011;50128;52.094;5.232;2022-12-16T22:32:19;99.5;;;60.2;;
63953;SDS011;50128;52.094;5.232;2022-12-16T22:33:55;82.5;;;54.7;;
63953;SDS011;50128;52.094;5.232;2022-12-16T22:35:34;79.3;;;55.0;;
63953;SDS011;50128;52.094;5.232;2022-12-16T22:38:47;107.5;;;75.41;;
63953;SDS011;50128;52.094;5.232;2022-12-16T22:40:23;84.2;;;55.6;;
63953;SDS011;50128;52.094;5.232;2022-12-16T22:41:59;82.0;;;54.3;;
63953;SDS011;50128;52.094;5.232;2022-12-16T22:45:11;100.6;;;69.7;;
63953;SDS011;50128;52.094;5.232;2022-12-16T22:46:47;91.1;;;60.0;;
63953;SDS011;50128;52.094;5.232;2022-12-16T22:48:23;93.5;;;57.7;;
63953;SDS011;50128;52.094;5.232;2022-12-16T22:51:37;80.2;;;51.5;;
63953;SDS011;50128;52.094;5.232;2022-12-16T22:53:13;91.0;;;56.9;;
63953;SDS011;50128;52.094;5.232;2022-12-16T22:54:49;96.8;;;65.1;;
63953;SDS011;50128;52.094;5.232;2022-12-16T22:56:25;116.0;;;89.7;;
63953;SDS011;50128;52.094;5.232;2022-12-16T22:59:42;99.1;;;65.1;;
63953;SDS011;50128;52.094;5.232;2022-12-16T23:01:18;93.1;;;63.2;;
63953;SDS011;50128;52.094;5.232;2022-12-16T23:02:55;109.0;;;79.5;;
63953;SDS011;50128;52.094;5.232;2022-12-16T23:06:07;107.3;;;76.7;;
63953;SDS011;50128;52.094;5.232;2022-12-16T23:07:45;92.5;;;63.7;;
63953;SDS011;50128;52.094;5.232;2022-12-16T23:09:21;96.1;;;64.2;;
63953;SDS011;50128;52.094;5.232;2022-12-16T23:12:34;86.6;;;58.5;;
63953;SDS011;50128;52.094;5.232;2022-12-16T23:14:10;117.1;;;91.5;;
63953;SDS011;50128;52.094;5.232;2022-12-16T23:15:46;81.41;;;54.2;;
63953;SDS011;50128;52.094;5.232;2022-12-16T23:17:22;88.2;;;57.2;;
63953;SDS011;50128;52.094;5.232;2022-12-16T23:20:35;86.9;;;55.4;;
63953;SDS011;50128;52.094;5.232;2022-12-16T23:22:11;149.9;;;133.9;;
63953;SDS011;50128;52.094;5.232;2022-12-16T23:23:50;138.1;;;119.8;;
63953;SDS011;50128;52.094;5.232;2022-12-16T23:27:03;94.0;;;63.4;;
63953;SDS011;50128;52.094;5.232;2022-12-16T23:28:39;95.2;;;71.2;;
63953;SDS011;50128;52.094;5.232;2022-12-16T23:30:15;108.1;;;82.8;;
63953;SDS011;50128;52.094;5.232;2022-12-16T23:33:27;116.2;;;87.7;;
63953;SDS011;50128;52.094;5.232;2022-12-16T23:35:04;97.1;;;68.3;;
63953;SDS011;50128;52.094;5.232;2022-12-16T23:36:40;92.8;;;62.8;;
63953;SDS011;50128;52.094;5.232;2022-12-16T23:38:17;99.9;;;72.3;;
63953;SDS011;50128;52.094;5.232;2022-12-16T23:41:29;84.8;;;59.8;;
63953;SDS011;50128;52.094;5.232;2022-12-16T23:43:05;90.7;;;62.8;;
63953;SDS011;50128;52.094;5.232;2022-12-16T23:44:41;88.7;;;58.7;;
63953;SDS011;50128;52.094;5.232;2022-12-16T23:47:58;86.3;;;57.6;;
63953;SDS011;50128;52.094;5.232;2022-12-16T23:49:35;93.1;;;61.3;;
63953;SDS011;50128;52.094;5.232;2022-12-16T23:51:11;87.5;;;59.5;;
63953;SDS011;50128;52.094;5.232;2022-12-16T23:54:23;86.8;;;59.4;;
63953;SDS011;50128;52.094;5.232;2022-12-16T23:56:00;90.9;;;58.7;;
63953;SDS011;50128;52.094;5.232;2022-12-16T23:57:37;82.7;;;55.8;;
63953;SDS011;50128;52.094;5.232;2022-12-16T23:59:13;70.5;;;50.3;;
